Time;durP1;ratioP1;P1;durP2;ratioP2;P2;SDS_P1;SDS_P2;PMS_P1;PMS_P2;Temp;Humidity;BMP_temperature;BMP_pressure;BME280_temperature;BME280_humidity;BME280_pressure;Samples;Min_cycle;Max_cycle;Signal;HPM_P1;HPM_P2
2024/03/18 00:03:00;;;;;;;17.80;14.63;;;;;9.90;101014.00;;;;9969509;29;20917;-80
2024/03/18 00:08:03;;;;;;;19.07;14.43;;;;;9.80;101014.00;;;;9958170;29;20314;-79
2024/03/18 00:13:04;;;;;;;18.93;14.73;;;;;9.60;101017.00;;;;9946887;29;20324;-80
2024/03/18 00:18:05;;;;;;;18.97;15.53;;;;;9.50;101014.00;;;;9975669;29;20233;-80
2024/03/18 00:23:06;;;;;;;22.83;16.87;;;;;9.50;101008.00;;;;9955914;29;20233;-80
2024/03/18 00:28:10;;;;;;;22.50;16.37;;;;;9.50;100994.00;;;;9972604;29;20279;-80
2024/03/18 00:33:11;;;;;;;21.97;16.90;;;;;9.50;101004.00;;;;9974982;29;20244;-79
2024/03/18 00:38:12;;;;;;;24.27;16.37;;;;;9.50;100993.00;;;;9961271;29;20233;-79
2024/03/18 00:43:13;;;;;;;21.03;16.47;;;;;9.50;100994.00;;;;9957488;29;20298;-79
2024/03/18 00:48:14;;;;;;;22.07;16.50;;;;;9.50;100990.00;;;;9948873;29;20713;-80
2024/03/18 00:53:15;;;;;;;26.77;17.07;;;;;9.60;100980.00;;;;9943961;29;20229;-78
2024/03/18 00:58:17;;;;;;;24.80;17.37;;;;;9.70;100968.00;;;;9983278;29;20343;-79
2024/03/18 01:03:18;;;;;;;28.07;17.83;;;;;9.80;100966.00;;;;9991474;29;20328;-83
2024/03/18 01:08:19;;;;;;;22.40;15.90;;;;;10.00;100974.00;;;;9977426;29;20316;-80
2024/03/18 01:13:21;;;;;;;25.40;17.90;;;;;10.10;100967.00;;;;9967350;29;20246;-79
2024/03/18 01:18:22;;;;;;;22.60;16.30;;;;;10.00;100966.00;;;;9957350;29;20272;-78
2024/03/18 01:23:23;;;;;;;23.03;16.77;;;;;10.00;100962.00;;;;9963370;29;20300;-80
2024/03/18 01:28:24;;;;;;;24.47;15.90;;;;;9.90;100960.00;;;;9961879;29;20245;-79
2024/03/18 01:33:25;;;;;;;22.67;17.00;;;;;9.80;100970.00;;;;9970626;29;20316;-78
2024/03/18 01:38:28;;;;;;;22.90;16.33;;;;;9.70;100965.00;;;;9977330;29;20331;-78
2024/03/18 01:43:29;;;;;;;23.03;17.07;;;;;9.70;100953.00;;;;9968330;29;20232;-77
2024/03/18 01:48:31;;;;;;;25.93;17.27;;;;;9.60;100948.00;;;;9986557;29;20237;-78
2024/03/18 01:53:33;;;;;;;26.80;17.83;;;;;9.60;100957.00;;;;9982419;29;20822;-78
2024/03/18 01:58:34;;;;;;;26.80;18.47;;;;;9.50;100954.00;;;;9963401;29;20643;-78
2024/03/18 02:03:35;;;;;;;26.13;17.17;;;;;9.40;100945.00;;;;9958149;29;20240;-79
2024/03/18 02:08:37;;;;;;;31.03;18.77;;;;;9.40;100946.00;;;;9977530;29;20241;-77
2024/03/18 02:13:40;;;;;;;34.70;20.27;;;;;9.40;100944.00;;;;9960200;29;20253;-77
2024/03/18 02:18:41;;;;;;;30.27;19.27;;;;;9.60;100937.00;;;;9961232;29;20233;-77
2024/03/18 02:23:42;;;;;;;34.00;20.87;;;;;9.70;100922.00;;;;9966653;29;20298;-79
2024/03/18 02:28:44;;;;;;;36.00;20.83;;;;;9.80;100930.00;;;;9957255;29;20282;-78
2024/03/18 02:33:45;;;;;;;31.30;20.27;;;;;9.90;100919.00;;;;9953883;29;20237;-79
2024/03/18 02:38:46;;;;;;;32.47;20.93;;;;;10.00;100915.00;;;;9955846;29;20249;-82
2024/03/18 02:43:48;;;;;;;33.43;21.80;;;;;10.00;100914.00;;;;10009949;29;20834;-81
2024/03/18 02:48:49;;;;;;;29.70;19.93;;;;;10.00;100913.00;;;;9950357;29;20292;-81
2024/03/18 02:53:50;;;;;;;27.87;20.33;;;;;10.00;100913.00;;;;9976477;29;20289;-81
2024/03/18 02:58:52;;;;;;;33.60;21.37;;;;;10.00;100915.00;;;;9980420;29;20308;-82
2024/03/18 03:03:57;;;;;;;30.20;20.43;;;;;9.90;100916.00;;;;9961997;29;20241;-81
2024/03/18 03:08:58;;;;;;;32.77;21.67;;;;;9.90;100907.00;;;;9970367;29;20229;-81
2024/03/18 03:13:59;;;;;;;31.53;21.70;;;;;9.80;100915.00;;;;9959296;29;20233;-82
2024/03/18 03:19:01;;;;;;;37.67;22.07;;;;;9.80;100902.00;;;;9950883;29;20217;-81
2024/03/18 03:24:02;;;;;;;31.60;21.60;;;;;9.70;100910.00;;;;9988589;29;20286;-82
2024/03/18 03:29:04;;;;;;;32.80;22.00;;;;;9.60;100912.00;;;;9949803;29;20262;-82
2024/03/18 03:34:05;;;;;;;35.90;23.17;;;;;9.60;100910.00;;;;9947983;29;20226;-81
2024/03/18 03:39:08;;;;;;;36.87;21.53;;;;;9.60;100914.00;;;;9974095;29;20245;-82
2024/03/18 03:44:09;;;;;;;41.27;21.73;;;;;9.70;100923.00;;;;9981915;29;20229;-81
2024/03/18 03:49:10;;;;;;;40.50;22.20;;;;;9.90;100924.00;;;;9960442;29;20313;-82
2024/03/18 03:54:11;;;;;;;46.07;22.60;;;;;10.10;100925.00;;;;9950698;29;20321;-82
2024/03/18 03:59:13;;;;;;;44.67;21.30;;;;;10.20;100932.00;;;;9945390;29;20237;-82
2024/03/18 04:04:14;;;;;;;49.23;23.00;;;;;10.30;100933.00;;;;9951005;29;20241;-82
2024/03/18 04:09:15;;;;;;;46.00;23.17;;;;;10.30;100927.00;;;;9974652;29;20245;-81
2024/03/18 04:14:16;;;;;;;44.87;23.17;;;;;10.30;100930.00;;;;9959463;29;20285;-82
2024/03/18 04:19:17;;;;;;;46.57;22.77;;;;;10.40;100933.00;;;;9958843;29;20233;-82
2024/03/18 04:24:18;;;;;;;49.93;21.97;;;;;10.30;100927.00;;;;9964364;29;20308;-81
2024/03/18 04:29:20;;;;;;;43.30;21.87;;;;;10.30;100927.00;;;;9962960;29;20312;-81
2024/03/18 04:34:21;;;;;;;44.93;21.47;;;;;10.30;100933.00;;;;9959505;29;20872;-81
2024/03/18 04:39:22;;;;;;;42.20;21.03;;;;;10.30;100934.00;;;;9978455;29;20316;-82
2024/03/18 04:44:23;;;;;;;45.90;21.33;;;;;10.30;100930.00;;;;9959383;29;20224;-81
2024/03/18 04:49:25;;;;;;;46.80;21.90;;;;;10.30;100930.00;;;;9961285;29;20244;-81
2024/03/18 04:54:27;;;;;;;47.30;23.10;;;;;10.20;100929.00;;;;9943566;29;20230;-82
2024/03/18 04:59:28;;;;;;;53.03;23.90;;;;;10.30;100938.00;;;;9981485;29;20237;-81
2024/03/18 05:04:29;;;;;;;52.03;22.83;;;;;10.30;100932.00;;;;9944354;29;20264;-81
2024/03/18 05:09:30;;;;;;;46.97;22.47;;;;;10.20;100945.00;;;;9955183;29;20828;-80
2024/03/18 05:14:31;;;;;;;47.93;22.87;;;;;10.20;100945.00;;;;9951169;29;20324;-80
2024/03/18 05:19:32;;;;;;;38.90;19.47;;;;;10.10;100949.00;;;;9958868;29;20228;-81
2024/03/18 05:24:33;;;;;;;35.70;16.87;;;;;10.00;100947.00;;;;9949287;29;20299;-81
2024/03/18 05:29:35;;;;;;;33.43;16.23;;;;;9.90;100949.00;;;;9985368;29;20237;-79
2024/03/18 05:34:37;;;;;;;35.73;18.53;;;;;9.90;100943.00;;;;9960173;29;20249;-81
2024/03/18 05:39:39;;;;;;;30.50;15.47;;;;;9.80;100956.00;;;;9971038;29;20756;-80
2024/03/18 05:44:40;;;;;;;32.10;15.97;;;;;9.80;100944.00;;;;9977812;29;20233;-80
2024/03/18 05:49:41;;;;;;;32.03;15.10;;;;;9.80;100950.00;;;;9980191;29;20284;-80
2024/03/18 05:54:42;;;;;;;28.17;14.20;;;;;9.70;100945.00;;;;9946938;29;20324;-80
2024/03/18 05:59:44;;;;;;;28.87;13.63;;;;;9.70;100943.00;;;;9968166;29;20233;-82
2024/03/18 06:04:45;;;;;;;30.93;13.93;;;;;9.70;100934.00;;;;9983558;29;20237;-80
2024/03/18 06:09:46;;;;;;;27.83;14.43;;;;;9.70;100940.00;;;;9973452;29;21009;-80
2024/03/18 06:14:47;;;;;;;26.20;14.63;;;;;9.70;100944.00;;;;9972854;29;20237;-80
2024/03/18 06:19:58;;;;;;;30.27;14.90;;;;;9.70;100959.00;;;;9958308;29;20245;-80
2024/03/18 06:30:19;;;;;;;31.63;14.33;;;;;9.70;100978.00;;;;9967447;29;20239;-80
2024/03/18 06:35:21;;;;;;;33.30;14.73;;;;;9.80;100981.00;;;;9977263;29;20232;-79
2024/03/18 06:40:22;;;;;;;30.10;14.97;;;;;10.00;100993.00;;;;9990283;29;20240;-80
2024/03/18 06:45:24;;;;;;;33.90;16.30;;;;;10.10;100986.00;;;;9951398;29;20240;-79
2024/03/18 06:50:25;;;;;;;28.63;15.87;;;;;10.10;100988.00;;;;9939616;29;20327;-80
2024/03/18 06:55:28;;;;;;;37.47;17.00;;;;;10.30;100999.00;;;;9948069;29;20244;-80
2024/03/18 07:00:31;;;;;;;41.47;17.73;;;;;10.40;101004.00;;;;9974635;29;20309;-79
2024/03/18 07:05:32;;;;;;;38.23;19.43;;;;;10.70;100994.00;;;;9988511;29;20860;-79
2024/03/18 07:10:33;;;;;;;35.80;19.10;;;;;10.80;101000.00;;;;9955197;29;20271;-80
2024/03/18 07:15:34;;;;;;;37.43;18.20;;;;;11.10;101006.00;;;;9939202;29;20233;-80
2024/03/18 07:20:38;;;;;;;38.07;17.00;;;;;11.20;101007.00;;;;9970797;29;20257;-80
2024/03/18 07:25:44;;;;;;;34.37;17.23;;;;;11.40;101007.00;;;;9974356;29;20984;-79
2024/03/18 07:30:47;;;;;;;31.20;16.33;;;;;11.60;101020.00;;;;9960652;29;20714;-78
2024/03/18 07:35:53;;;;;;;35.27;16.90;;;;;11.60;101035.00;;;;9975664;29;20229;-78
2024/03/18 07:40:55;;;;;;;30.93;14.50;;;;;11.50;101031.00;;;;9950242;29;20301;-80
2024/03/18 07:45:56;;;;;;;33.23;14.90;;;;;11.50;101029.00;;;;9962323;29;20315;-78
2024/03/18 07:50:57;;;;;;;33.27;13.63;;;;;11.60;101027.00;;;;9944499;29;20241;-79
2024/03/18 07:56:00;;;;;;;27.53;13.27;;;;;11.70;101027.00;;;;9980587;29;20229;-79
2024/03/18 08:01:02;;;;;;;29.80;14.00;;;;;11.70;101037.00;;;;9958097;29;20285;-77
2024/03/18 08:06:11;;;;;;;29.50;14.50;;;;;11.60;101038.00;;;;9960478;29;20241;-79
2024/03/18 08:11:12;;;;;;;29.67;14.90;;;;;11.70;101048.00;;;;9997364;29;20282;-78
2024/03/18 08:16:13;;;;;;;35.00;15.77;;;;;11.80;101059.00;;;;9959892;29;20317;-81
2024/03/18 08:21:14;;;;;;;30.37;14.60;;;;;11.80;101057.00;;;;9982665;29;20843;-78
2024/03/18 08:26:15;;;;;;;37.30;15.10;;;;;11.90;101069.00;;;;9982928;29;20281;-79
2024/03/18 08:31:17;;;;;;;29.83;17.57;;;;;12.30;101064.00;;;;9986502;29;20252;-81
2024/03/18 08:36:18;;;;;;;31.00;17.77;;;;;12.80;101055.00;;;;9967713;29;20305;-78
2024/03/18 08:41:19;;;;;;;38.53;20.27;;;;;13.20;101056.00;;;;9973939;29;20217;-83
2024/03/18 08:46:20;;;;;;;35.47;19.67;;;;;13.40;101062.00;;;;10005163;29;20302;-83
2024/03/18 08:51:21;;;;;;;34.22;20.63;;;;;13.60;101070.00;;;;9933824;29;20241;-83
2024/03/18 08:56:22;;;;;;;39.05;20.83;;;;;13.90;101060.00;;;;9955343;29;20262;-83
2024/03/18 09:01:23;;;;;;;36.42;20.50;;;;;14.00;101059.00;;;;9964501;29;20248;-83
2024/03/18 09:06:25;;;;;;;35.55;16.98;;;;;14.10;101078.00;;;;9967389;29;20264;-83
2024/03/18 09:11:26;;;;;;;25.17;15.75;;;;;14.00;101079.00;;;;9966200;29;20237;-83
2024/03/18 09:16:27;;;;;;;28.77;15.52;;;;;14.20;101077.00;;;;9954100;29;20250;-83
2024/03/18 09:21:28;;;;;;;30.40;16.67;;;;;14.70;101077.00;;;;9956298;29;20331;-83
2024/03/18 09:26:29;;;;;;;37.42;16.60;;;;;14.60;101086.00;;;;9973515;29;20260;-83
2024/03/18 09:31:31;;;;;;;29.25;15.43;;;;;14.70;101085.00;;;;9959670;29;20253;-84
2024/03/18 09:36:33;;;;;;;29.73;14.05;;;;;15.00;101091.00;;;;9961795;29;20257;-83
2024/03/18 09:41:42;;;;;;;27.88;14.45;;;;;15.50;101086.00;;;;9949193;29;20762;-83
2024/03/18 09:46:48;;;;;;;21.50;13.45;;;;;15.60;101078.00;;;;9983421;29;20673;-83
2024/03/18 09:51:50;;;;;;;24.52;14.02;;;;;15.80;101085.00;;;;9995969;29;20324;-78
2024/03/18 09:56:58;;;;;;;24.10;14.18;;;;;16.60;101086.00;;;;9965179;29;20833;-79
2024/03/18 10:01:59;;;;;;;20.55;13.02;;;;;16.80;101091.00;;;;9952444;29;20317;-79
2024/03/18 10:07:01;;;;;;;22.95;12.63;;;;;15.80;101104.00;;;;9967222;29;20240;-80
2024/03/18 10:12:03;;;;;;;26.05;13.23;;;;;15.60;101106.00;;;;9950866;29;20646;-79
2024/03/18 10:17:06;;;;;;;26.23;13.63;;;;;16.30;101108.00;;;;9974022;29;20293;-79
2024/03/18 10:22:15;;;;;;;21.80;13.00;;;;;17.40;101104.00;;;;9988065;29;20261;-80
2024/03/18 10:27:16;;;;;;;20.17;11.13;;;;;17.70;101104.00;;;;9954851;29;20240;-79
2024/03/18 10:32:25;;;;;;;19.70;10.20;;;;;18.50;101100.00;;;;9978767;29;20312;-80
2024/03/18 10:37:27;;;;;;;19.38;10.88;;;;;18.30;101107.00;;;;9994996;29;20312;-82
2024/03/18 10:42:34;;;;;;;21.98;11.10;;;;;18.10;101113.00;;;;9973620;29;20245;-79
2024/03/18 10:47:36;;;;;;;20.90;9.32;;;;;18.90;101113.00;;;;9965015;29;20286;-80
2024/03/18 10:52:38;;;;;;;20.52;9.40;;;;;20.20;101100.00;;;;9967753;29;20726;-80
2024/03/18 10:57:40;;;;;;;17.70;9.05;;;;;20.50;101095.00;;;;9969033;29;20595;-80
2024/03/18 11:02:41;;;;;;;19.52;8.82;;;;;20.70;101101.00;;;;9981414;29;20260;-81
2024/03/18 11:07:43;;;;;;;18.85;8.82;;;;;19.80;101131.00;;;;9972178;29;20285;-80
2024/03/18 11:12:45;;;;;;;18.08;9.30;;;;;19.00;101136.00;;;;9972040;29;20325;-78
2024/03/18 11:17:48;;;;;;;21.98;9.23;;;;;18.60;101128.00;;;;9957520;29;20237;-80
2024/03/18 11:22:57;;;;;;;12.93;6.55;;;;;18.80;101144.00;;;;9986134;29;20967;-80
2024/03/18 11:27:59;;;;;;;15.63;6.43;;;;;18.70;101133.00;;;;9984383;29;20333;-80
2024/03/18 11:33:12;;;;;;;17.10;7.53;;;;;19.90;101137.00;;;;10010887;29;20243;-79
2024/03/18 11:38:13;;;;;;;12.57;5.97;;;;;19.70;101125.00;;;;9978959;29;20699;-81
2024/03/18 11:43:15;;;;;;;13.10;5.25;;;;;20.70;101124.00;;;;9980096;29;20230;-79
2024/03/18 11:48:16;;;;;;;11.40;4.68;;;;;20.20;101132.00;;;;9966003;29;20842;-79
2024/03/18 11:53:21;;;;;;;12.45;5.93;;;;;19.30;101140.00;;;;9965842;29;20252;-79
2024/03/18 11:58:22;;;;;;;11.18;5.65;;;;;18.30;101151.00;;;;9954197;29;20864;-80
2024/03/18 12:03:23;;;;;;;15.07;5.15;;;;;17.50;101164.00;;;;9974499;29;20305;-80
2024/03/18 12:08:25;;;;;;;12.13;4.72;;;;;18.70;101144.00;;;;9971359;29;20233;-81
2024/03/18 12:13:27;;;;;;;8.70;3.60;;;;;19.60;101129.00;;;;9968525;29;20237;-81
2024/03/18 12:18:30;;;;;;;11.10;4.15;;;;;20.10;101125.00;;;;9998138;29;20242;-82
2024/03/18 12:28:51;;;;;;;9.98;3.58;;;;;20.40;101128.00;;;;9991686;29;20245;-82
2024/03/18 12:33:53;;;;;;;11.68;3.80;;;;;20.00;101115.00;;;;9946455;29;20316;-81
2024/03/18 12:38:58;;;;;;;6.82;3.13;;;;;21.10;101104.00;;;;9968040;29;20305;-81
2024/03/18 12:43:59;;;;;;;7.18;3.35;;;;;20.70;101108.00;;;;9965630;29;20333;-81
2024/03/18 12:49:05;;;;;;;8.65;3.25;;;;;20.30;101118.00;;;;9978643;29;20226;-82
2024/03/18 12:54:08;;;;;;;7.28;2.35;;;;;20.20;101118.00;;;;9956793;29;20237;-81
2024/03/18 12:59:09;;;;;;;9.05;2.50;;;;;20.00;101112.00;;;;9979039;29;20320;-81
2024/03/18 13:04:10;;;;;;;8.77;3.22;;;;;19.70;101121.00;;;;9957183;29;20237;-81
2024/03/18 13:09:17;;;;;;;9.85;3.28;;;;;19.20;101115.00;;;;9958731;29;20883;-81
2024/03/18 13:14:21;;;;;;;8.57;3.80;;;;;19.50;101109.00;;;;9990996;29;20301;-81
2024/03/18 13:19:23;;;;;;;8.45;3.55;;;;;19.80;101106.00;;;;9951999;29;20259;-78
2024/03/18 13:24:27;;;;;;;7.90;2.55;;;;;20.10;101108.00;;;;9941262;29;20282;-80
2024/03/18 13:29:31;;;;;;;7.28;2.63;;;;;19.80;101103.00;;;;9993098;29;20320;-79
2024/03/18 13:34:32;;;;;;;4.03;1.90;;;;;19.80;101094.00;;;;9957526;29;20233;-79
2024/03/18 13:39:34;;;;;;;4.38;1.70;;;;;19.10;101095.00;;;;9980122;29;20236;-79
2024/03/18 13:44:36;;;;;;;7.03;2.20;;;;;18.80;101101.00;;;;9969175;29;20230;-80
2024/03/18 13:49:37;;;;;;;6.25;2.85;;;;;19.20;101095.00;;;;10006837;29;20294;-79
2024/03/18 13:54:38;;;;;;;3.47;1.92;;;;;19.80;101100.00;;;;9968303;29;20245;-78
2024/03/18 13:59:43;;;;;;;6.50;2.08;;;;;20.00;101102.00;;;;9962500;29;20320;-79
2024/03/18 14:04:47;;;;;;;4.47;2.30;;;;;20.90;101101.00;;;;9997134;29;20234;-80
2024/03/18 14:09:51;;;;;;;5.90;1.88;;;;;20.20;101095.00;;;;9977425;29;20778;-79
2024/03/18 14:14:53;;;;;;;3.13;1.23;;;;;23.00;100982.00;;;;9993409;29;20316;-80
2024/03/18 14:19:54;;;;;;;5.60;1.58;;;;;19.80;101091.00;;;;9983895;29;20226;-79
2024/03/18 14:25:00;;;;;;;5.90;1.77;;;;;21.60;100976.00;;;;9958017;29;20286;-79
2024/03/18 14:30:03;;;;;;;2.85;1.60;;;;;25.70;100970.00;;;;9972798;29;20226;-82
2024/03/18 14:35:05;;;;;;;5.22;1.60;;;;;26.50;100973.00;;;;9968595;29;20229;-81
2024/03/18 14:40:09;;;;;;;3.47;1.55;;;;;25.00;101033.00;;;;9964757;29;20230;-84
2024/03/18 14:45:19;;;;;;;3.92;1.40;;;;;23.30;101056.00;;;;9985053;29;20232;-83
2024/03/18 14:50:20;;;;;;;3.30;1.52;;;;;21.90;101086.00;;;;9957972;29;20316;-81
2024/03/18 14:55:22;;;;;;;4.10;1.58;;;;;22.80;101077.00;;;;9992095;29;20600;-82
2024/03/18 15:00:24;;;;;;;4.15;1.42;;;;;20.50;101077.00;;;;9972522;29;20226;-83
2024/03/18 15:05:25;;;;;;;4.10;1.75;;;;;19.50;101077.00;;;;9970559;29;20244;-82
2024/03/18 15:10:27;;;;;;;5.28;1.85;;;;;19.40;101075.00;;;;9968043;29;20242;-81
2024/03/18 15:15:28;;;;;;;5.35;1.67;;;;;19.10;101077.00;;;;9962530;29;20876;-82
2024/03/18 15:20:29;;;;;;;4.82;2.35;;;;;18.80;101089.00;;;;9982886;29;20256;-83
2024/03/18 15:30:50;;;;;;;6.28;2.05;;;;;18.00;101081.00;;;;9968313;29;20237;-82
2024/03/18 15:35:51;;;;;;;7.93;3.22;;;;;17.80;101077.00;;;;9976440;29;20289;-82
2024/03/18 15:40:52;;;;;;;4.38;2.20;;;;;17.30;101078.00;;;;9995516;29;20357;-79
2024/03/18 15:45:54;;;;;;;7.93;2.78;;;;;16.90;101077.00;;;;9961585;29;20240;-79
2024/03/18 15:50:55;;;;;;;6.78;2.90;;;;;16.80;101080.00;;;;9976482;29;20258;-81
2024/03/18 15:56:00;;;;;;;3.85;2.33;;;;;18.10;101079.00;;;;9989317;29;20749;-79
2024/03/18 16:01:02;;;;;;;5.30;2.25;;;;;18.10;101081.00;;;;9966401;29;21001;-79
2024/03/18 16:06:05;;;;;;;4.38;2.20;;;;;18.40;101079.00;;;;9986045;29;20274;-79
2024/03/18 16:11:08;;;;;;;6.00;1.58;;;;;18.40;101083.00;;;;9964787;29;20233;-79
2024/03/18 16:16:09;;;;;;;5.25;1.27;;;;;17.60;101081.00;;;;9980077;29;20325;-80
2024/03/18 16:21:11;;;;;;;3.40;1.38;;;;;17.10;101090.00;;;;9991532;29;21027;-80
2024/03/18 16:26:12;;;;;;;5.07;1.35;;;;;16.60;101091.00;;;;9969341;29;20313;-79
2024/03/18 16:31:13;;;;;;;3.95;1.40;;;;;16.30;101086.00;;;;9988824;29;20336;-80
2024/03/18 16:36:15;;;;;;;4.05;1.27;;;;;16.00;101084.00;;;;9942147;29;20233;-79
2024/03/18 16:41:16;;;;;;;3.25;1.10;;;;;15.70;101095.00;;;;9979660;29;20872;-80
2024/03/18 16:46:17;;;;;;;5.13;1.00;;;;;15.50;101099.00;;;;9987090;29;20236;-80
2024/03/18 16:51:19;;;;;;;3.25;0.90;;;;;15.50;101099.00;;;;9970643;29;20244;-82
2024/03/18 16:56:20;;;;;;;2.45;0.70;;;;;15.30;101105.00;;;;9963882;29;20959;-82
2024/03/18 17:01:21;;;;;;;1.55;0.90;;;;;15.10;101112.00;;;;9965543;29;20320;-82
2024/03/18 17:06:22;;;;;;;2.08;0.90;;;;;15.00;101114.00;;;;9956274;29;20256;-82
2024/03/18 17:11:23;;;;;;;4.07;1.13;;;;;14.90;101120.00;;;;9998602;29;20237;-81
2024/03/18 17:16:24;;;;;;;3.63;1.25;;;;;14.70;101120.00;;;;9989340;29;20258;-81
2024/03/18 17:21:26;;;;;;;4.97;1.33;;;;;14.60;101130.00;;;;9982003;29;20241;-82
2024/03/18 17:26:28;;;;;;;2.85;1.15;;;;;14.30;101125.00;;;;9972621;29;20237;-80
2024/03/18 17:31:30;;;;;;;5.10;1.20;;;;;14.20;101132.00;;;;9966453;29;20237;-82
2024/03/18 17:36:31;;;;;;;2.78;1.33;;;;;14.00;101137.00;;;;9976129;29;20372;-82
2024/03/18 17:41:52;;;;;;;7.13;1.30;;;;;13.70;101135.00;;;;9972704;29;20332;-81
2024/03/18 17:46:57;;;;;;;7.72;2.75;;;;;13.50;101142.00;;;;9958467;29;20288;-81
2024/03/18 17:51:58;;;;;;;5.72;1.67;;;;;13.30;101151.00;;;;9983571;29;20258;-81
2024/03/18 17:56:59;;;;;;;4.88;2.08;;;;;13.30;101152.00;;;;9983538;29;20237;-81
2024/03/18 18:02:02;;;;;;;2.78;1.20;;;;;13.20;101158.00;;;;9964949;29;20230;-83
2024/03/18 18:07:04;;;;;;;6.00;1.83;;;;;13.10;101165.00;;;;9955809;29;20378;-82
2024/03/18 18:12:05;;;;;;;7.78;1.60;;;;;12.90;101170.00;;;;9975859;29;20695;-83
2024/03/18 18:17:06;;;;;;;7.93;1.97;;;;;12.70;101175.00;;;;9982004;29;20314;-82
2024/03/18 18:22:07;;;;;;;7.70;2.00;;;;;12.60;101190.00;;;;9970781;29;20257;-82
2024/03/18 18:27:10;;;;;;;4.80;1.70;;;;;12.60;101183.00;;;;9961472;29;21805;-82
2024/03/18 18:32:13;;;;;;;6.17;1.77;;;;;12.50;101194.00;;;;9954909;29;20229;-83
2024/03/18 18:37:15;;;;;;;5.87;1.90;;;;;12.40;101192.00;;;;9927258;29;20934;-83
2024/03/18 18:42:16;;;;;;;4.40;1.90;;;;;12.20;101196.00;;;;9977994;29;20243;-82
2024/03/18 18:47:17;;;;;;;5.77;2.30;;;;;12.00;101208.00;;;;9975689;29;20233;-83
2024/03/18 18:52:18;;;;;;;4.20;2.23;;;;;11.90;101208.00;;;;9972604;29;20237;-83
2024/03/18 18:57:20;;;;;;;9.83;3.60;;;;;11.70;101215.00;;;;9974523;29;20236;-83
2024/03/18 19:02:21;;;;;;;9.57;2.83;;;;;11.60;101218.00;;;;9985824;29;20321;-83
2024/03/18 19:07:22;;;;;;;5.97;2.00;;;;;11.50;101222.00;;;;9979856;29;20229;-82
2024/03/18 19:12:24;;;;;;;5.10;2.57;;;;;11.40;101233.00;;;;9950722;29;20230;-81
2024/03/18 19:17:27;;;;;;;5.80;2.40;;;;;11.30;101230.00;;;;9981328;29;20746;-81
2024/03/18 19:22:28;;;;;;;7.63;2.60;;;;;11.20;101238.00;;;;9980686;29;20238;-81
2024/03/18 19:27:29;;;;;;;7.13;2.80;;;;;11.10;101242.00;;;;9974930;29;20244;-81
2024/03/18 19:32:31;;;;;;;8.97;3.60;;;;;11.00;101242.00;;;;9966267;29;20313;-81
2024/03/18 19:37:32;;;;;;;10.67;3.57;;;;;10.90;101243.00;;;;9978228;29;20252;-80
2024/03/18 19:42:33;;;;;;;7.77;2.93;;;;;10.70;101255.00;;;;9974118;29;20237;-80
2024/03/18 19:47:34;;;;;;;12.77;3.97;;;;;10.60;101256.00;;;;9963020;29;21617;-81
2024/03/18 19:52:36;;;;;;;12.27;4.63;;;;;10.50;101255.00;;;;9980599;29;20249;-81
2024/03/18 19:57:39;;;;;;;11.17;3.40;;;;;10.40;101253.00;;;;9980010;29;20326;-81
2024/03/18 20:02:40;;;;;;;6.67;2.67;;;;;10.30;101260.00;;;;9954821;29;20233;-81
2024/03/18 20:07:42;;;;;;;6.20;2.40;;;;;10.20;101257.00;;;;9969211;29;20261;-81
2024/03/18 20:12:44;;;;;;;9.63;2.93;;;;;10.30;101260.00;;;;9969408;29;20879;-81
2024/03/18 20:17:46;;;;;;;6.20;2.57;;;;;10.30;101264.00;;;;9995055;29;20234;-82
2024/03/18 20:22:47;;;;;;;12.07;2.90;;;;;10.30;101253.00;;;;9958247;29;20240;-83
2024/03/18 20:27:48;;;;;;;8.80;2.70;;;;;10.10;101253.00;;;;9982015;29;20251;-82
2024/03/18 20:32:50;;;;;;;7.83;3.00;;;;;10.00;101250.00;;;;9956470;29;20236;-82
2024/03/18 20:37:52;;;;;;;7.47;2.90;;;;;10.00;101259.00;;;;9961896;29;20689;-83
2024/03/18 20:42:53;;;;;;;7.00;3.23;;;;;9.80;101258.00;;;;9948750;29;20222;-82
2024/03/18 20:47:54;;;;;;;10.13;4.53;;;;;9.70;101261.00;;;;9994002;29;20240;-82
2024/03/18 20:52:56;;;;;;;9.07;4.10;;;;;9.60;101266.00;;;;9980125;29;20237;-82
2024/03/18 20:57:57;;;;;;;8.97;4.33;;;;;9.50;101266.00;;;;9956897;29;20263;-82
2024/03/18 21:02:58;;;;;;;8.53;4.37;;;;;9.40;101261.00;;;;9964108;29;21047;-82
2024/03/18 21:07:59;;;;;;;10.37;3.70;;;;;9.30;101252.00;;;;9979923;29;20249;-83
2024/03/18 21:13:01;;;;;;;14.00;4.60;;;;;9.20;101252.00;;;;9961158;29;20383;-82
2024/03/18 21:18:04;;;;;;;12.30;4.70;;;;;9.20;101257.00;;;;9976977;29;20233;-82
2024/03/18 21:23:05;;;;;;;9.57;4.83;;;;;9.10;101254.00;;;;9962593;29;20331;-82
2024/03/18 21:28:07;;;;;;;10.67;5.30;;;;;9.00;101261.00;;;;9974036;29;20370;-82
2024/03/18 21:33:08;;;;;;;11.77;6.00;;;;;9.00;101258.00;;;;9975069;29;20326;-81
2024/03/18 21:38:09;;;;;;;10.67;5.37;;;;;9.20;101255.00;;;;9984350;29;20234;-82
2024/03/18 21:43:11;;;;;;;9.77;4.93;;;;;9.40;101259.00;;;;9970934;29;21413;-81
2024/03/18 21:48:12;;;;;;;13.27;6.07;;;;;9.50;101256.00;;;;9963930;29;20320;-82
2024/03/18 21:53:14;;;;;;;12.67;5.47;;;;;9.60;101249.00;;;;9979050;29;20312;-82
2024/03/18 21:58:15;;;;;;;10.10;5.30;;;;;9.70;101245.00;;;;9978110;29;20234;-82
2024/03/18 22:03:18;;;;;;;13.10;5.40;;;;;9.60;101245.00;;;;9972854;29;20328;-82
2024/03/18 22:08:20;;;;;;;19.53;9.23;;;;;9.60;101244.00;;;;9969744;29;20253;-82
2024/03/18 22:13:21;;;;;;;15.50;7.67;;;;;9.50;101254.00;;;;9948921;29;20238;-81
2024/03/18 22:18:22;;;;;;;12.83;6.03;;;;;9.50;101246.00;;;;9953492;29;20260;-81
2024/03/18 22:23:23;;;;;;;11.93;5.80;;;;;9.50;101243.00;;;;9947601;29;20236;-81
2024/03/18 22:28:24;;;;;;;11.93;5.47;;;;;9.50;101241.00;;;;9982502;29;20621;-81
2024/03/18 22:33:26;;;;;;;17.73;6.23;;;;;9.50;101245.00;;;;9976252;29;20221;-81
2024/03/18 22:38:27;;;;;;;13.57;5.87;;;;;9.40;101241.00;;;;9967645;29;20316;-83
2024/03/18 22:43:31;;;;;;;10.50;5.30;;;;;9.30;101232.00;;;;9964738;29;20233;-82
2024/03/18 22:48:32;;;;;;;11.73;5.20;;;;;9.30;101239.00;;;;9990882;29;20730;-82
2024/03/18 22:53:33;;;;;;;14.40;5.07;;;;;9.30;101245.00;;;;9966221;29;20338;-82
2024/03/18 22:58:34;;;;;;;12.00;4.23;;;;;9.30;101243.00;;;;9993925;29;20275;-81
2024/03/18 23:03:36;;;;;;;8.40;3.40;;;;;9.40;101242.00;;;;9968924;29;20261;-82
2024/03/18 23:08:37;;;;;;;8.60;3.17;;;;;9.50;101240.00;;;;9948794;29;20312;-81
2024/03/18 23:13:38;;;;;;;9.27;3.23;;;;;9.50;101231.00;;;;9961218;29;21006;-83
2024/03/18 23:18:39;;;;;;;7.30;2.40;;;;;9.50;101225.00;;;;9943747;29;20241;-82
2024/03/18 23:23:40;;;;;;;8.20;2.83;;;;;9.70;101222.00;;;;9982655;29;20823;-82
2024/03/18 23:28:42;;;;;;;12.03;2.93;;;;;9.80;101216.00;;;;9970802;29;20233;-81
2024/03/18 23:33:45;;;;;;;6.30;2.47;;;;;9.80;101216.00;;;;9969005;29;20324;-82
2024/03/18 23:38:49;;;;;;;7.97;2.43;;;;;9.90;101206.00;;;;9962933;29;20850;-82
2024/03/18 23:43:51;;;;;;;7.70;2.40;;;;;10.00;101205.00;;;;9977902;29;20300;-81
2024/03/18 23:48:52;;;;;;;6.70;2.57;;;;;10.00;101194.00;;;;9979991;29;20321;-78
2024/03/18 23:53:53;;;;;;;9.33;2.73;;;;;9.90;101188.00;;;;9961475;29;20701;-78
2024/03/18 23:58:55;;;;;;;6.43;2.57;;;;;10.00;101182.00;;;;9988334;29;20313;-80
